sensor_id;sensor_type;location;lat;lon;timestamp;temperature;humidity
43414;DHT22;29013;49.676;8.606;2023-08-07T00:01:13;15.1;99.9
43414;DHT22;29013;49.676;8.606;2023-08-07T00:06:34;15.1;99.9
43414;DHT22;29013;49.676;8.606;2023-08-07T00:11:58;15.0;99.9
43414;DHT22;29013;49.676;8.606;2023-08-07T00:17:23;15.0;99.9
43414;DHT22;29013;49.676;8.606;2023-08-07T00:22:48;15.0;99.9
43414;DHT22;29013;49.676;8.606;2023-08-07T00:28:13;15.0;99.9
43414;DHT22;29013;49.676;8.606;2023-08-07T00:33:40;15.0;99.9
43414;DHT22;29013;49.676;8.606;2023-08-07T00:39:05;15.0;99.9
43414;DHT22;29013;49.676;8.606;2023-08-07T00:45:50;14.9;99.9
43414;DHT22;29013;49.676;8.606;2023-08-07T00:51:16;15.5;99.9
43414;DHT22;29013;49.676;8.606;2023-08-07T00:57:07;15.2;99.9
43414;DHT22;29013;49.676;8.606;2023-08-07T01:02:27;15.3;99.9
43414;DHT22;29013;49.676;8.606;2023-08-07T01:07:51;15.1;99.9
43414;DHT22;29013;49.676;8.606;2023-08-07T01:13:14;15.1;99.9
43414;DHT22;29013;49.676;8.606;2023-08-07T01:18:38;15.0;99.9
43414;DHT22;29013;49.676;8.606;2023-08-07T01:24:05;15.0;99.9
43414;DHT22;29013;49.676;8.606;2023-08-07T01:29:30;15.0;99.9
43414;DHT22;29013;49.676;8.606;2023-08-07T01:34:53;15.0;99.9
43414;DHT22;29013;49.676;8.606;2023-08-07T01:40:21;15.0;99.9
43414;DHT22;29013;49.676;8.606;2023-08-07T01:46:04;15.0;99.9
43414;DHT22;29013;49.676;8.606;2023-08-07T01:51:33;15.1;99.9
43414;DHT22;29013;49.676;8.606;2023-08-07T01:56:55;15.1;99.9
43414;DHT22;29013;49.676;8.606;2023-08-07T02:02:31;15.0;99.9
43414;DHT22;29013;49.676;8.606;2023-08-07T02:08:23;15.1;99.9
43414;DHT22;29013;49.676;8.606;2023-08-07T02:13:38;15.3;99.9
43414;DHT22;29013;49.676;8.606;2023-08-07T02:19:01;15.1;99.9
43414;DHT22;29013;49.676;8.606;2023-08-07T02:24:30;15.1;99.9
43414;DHT22;29013;49.676;8.606;2023-08-07T02:30:17;15.0;99.9
43414;DHT22;29013;49.676;8.606;2023-08-07T02:35:55;15.2;99.9
43414;DHT22;29013;49.676;8.606;2023-08-07T02:41:11;15.2;99.9
43414;DHT22;29013;49.676;8.606;2023-08-07T02:46:37;15.2;99.9
43414;DHT22;29013;49.676;8.606;2023-08-07T02:51:58;15.1;99.9
43414;DHT22;29013;49.676;8.606;2023-08-07T02:57:23;15.0;99.9
43414;DHT22;29013;49.676;8.606;2023-08-07T03:02:48;14.9;99.9
43414;DHT22;29013;49.676;8.606;2023-08-07T03:08:12;14.9;99.9
43414;DHT22;29013;49.676;8.606;2023-08-07T03:13:34;14.8;99.9
43414;DHT22;29013;49.676;8.606;2023-08-07T03:18:59;14.7;99.9
43414;DHT22;29013;49.676;8.606;2023-08-07T03:24:37;14.7;99.9
43414;DHT22;29013;49.676;8.606;2023-08-07T03:30:05;14.8;99.9
43414;DHT22;29013;49.676;8.606;2023-08-07T03:35:27;14.8;99.9
43414;DHT22;29013;49.676;8.606;2023-08-07T03:40:52;14.8;99.9
43414;DHT22;29013;49.676;8.606;2023-08-07T03:46:20;14.8;99.9
43414;DHT22;29013;49.676;8.606;2023-08-07T03:51:39;14.9;99.9
43414;DHT22;29013;49.676;8.606;2023-08-07T03:57:01;14.9;99.9
43414;DHT22;29013;49.676;8.606;2023-08-07T04:02:22;14.9;99.9
43414;DHT22;29013;49.676;8.606;2023-08-07T04:07:47;14.9;99.9
43414;DHT22;29013;49.676;8.606;2023-08-07T04:13:16;14.9;99.9
43414;DHT22;29013;49.676;8.606;2023-08-07T04:19:40;14.9;99.9
43414;DHT22;29013;49.676;8.606;2023-08-07T04:25:30;15.2;99.9
43414;DHT22;29013;49.676;8.606;2023-08-07T04:30:59;15.3;99.9
43414;DHT22;29013;49.676;8.606;2023-08-07T04:37:55;15.1;99.9
43414;DHT22;29013;49.676;8.606;2023-08-07T04:43:12;15.5;99.9
43414;DHT22;29013;49.676;8.606;2023-08-07T04:48:33;15.3;99.9
43414;DHT22;29013;49.676;8.606;2023-08-07T04:54:03;15.2;99.9
43414;DHT22;29013;49.676;8.606;2023-08-07T04:59:34;15.2;99.9
43414;DHT22;29013;49.676;8.606;2023-08-07T05:04:58;15.2;99.9
43414;DHT22;29013;49.676;8.606;2023-08-07T05:10:25;15.2;99.9
43414;DHT22;29013;49.676;8.606;2023-08-07T05:16:06;15.1;99.9
43414;DHT22;29013;49.676;8.606;2023-08-07T05:21:32;15.2;99.9
43414;DHT22;29013;49.676;8.606;2023-08-07T05:26:54;15.3;99.9
43414;DHT22;29013;49.676;8.606;2023-08-07T05:32:18;15.2;99.9
43414;DHT22;29013;49.676;8.606;2023-08-07T05:37:37;15.3;99.9
43414;DHT22;29013;49.676;8.606;2023-08-07T05:43:05;15.2;99.9
43414;DHT22;29013;49.676;8.606;2023-08-07T05:48:26;15.2;99.9
43414;DHT22;29013;49.676;8.606;2023-08-07T05:53:50;15.3;99.9
43414;DHT22;29013;49.676;8.606;2023-08-07T05:59:20;15.3;99.9
43414;DHT22;29013;49.676;8.606;2023-08-07T06:04:41;15.4;99.9
43414;DHT22;29013;49.676;8.606;2023-08-07T06:10:04;15.2;99.9
43414;DHT22;29013;49.676;8.606;2023-08-07T06:15:32;15.3;99.9
43414;DHT22;29013;49.676;8.606;2023-08-07T06:22:03;15.2;99.9
43414;DHT22;29013;49.676;8.606;2023-08-07T06:27:25;15.6;99.9
43414;DHT22;29013;49.676;8.606;2023-08-07T06:32:52;15.5;99.9
43414;DHT22;29013;49.676;8.606;2023-08-07T06:38:39;15.4;99.9
43414;DHT22;29013;49.676;8.606;2023-08-07T06:44:00;15.5;99.9
43414;DHT22;29013;49.676;8.606;2023-08-07T06:49:18;15.5;99.9
43414;DHT22;29013;49.676;8.606;2023-08-07T06:54:41;15.5;99.9
43414;DHT22;29013;49.676;8.606;2023-08-07T07:00:07;15.5;99.9
43414;DHT22;29013;49.676;8.606;2023-08-07T07:05:33;15.5;99.9
43414;DHT22;29013;49.676;8.606;2023-08-07T07:10:59;15.6;99.9
43414;DHT22;29013;49.676;8.606;2023-08-07T07:16:23;15.6;99.9
43414;DHT22;29013;49.676;8.606;2023-08-07T07:21:47;15.6;99.9
43414;DHT22;29013;49.676;8.606;2023-08-07T07:27:54;15.6;99.9
43414;DHT22;29013;49.676;8.606;2023-08-07T07:33:30;15.7;99.9
43414;DHT22;29013;49.676;8.606;2023-08-07T07:39:45;15.8;99.9
43414;DHT22;29013;49.676;8.606;2023-08-07T07:45:08;16.0;99.9
43414;DHT22;29013;49.676;8.606;2023-08-07T07:50:29;15.9;99.9
43414;DHT22;29013;49.676;8.606;2023-08-07T07:55:54;15.9;99.9
43414;DHT22;29013;49.676;8.606;2023-08-07T08:01:19;15.9;99.9
43414;DHT22;29013;49.676;8.606;2023-08-07T08:06:45;16.0;99.9
43414;DHT22;29013;49.676;8.606;2023-08-07T08:12:09;16.0;99.9
43414;DHT22;29013;49.676;8.606;2023-08-07T08:17:34;15.9;99.9
43414;DHT22;29013;49.676;8.606;2023-08-07T08:22:59;16.0;99.9
43414;DHT22;29013;49.676;8.606;2023-08-07T08:28:22;16.0;99.9
43414;DHT22;29013;49.676;8.606;2023-08-07T08:34:00;15.9;99.9
43414;DHT22;29013;49.676;8.606;2023-08-07T08:39:21;16.1;99.9
43414;DHT22;29013;49.676;8.606;2023-08-07T08:45:08;15.8;99.9
43414;DHT22;29013;49.676;8.606;2023-08-07T08:50:28;16.0;99.9
43414;DHT22;29013;49.676;8.606;2023-08-07T08:55:53;16.0;99.9
43414;DHT22;29013;49.676;8.606;2023-08-07T09:01:18;15.9;99.9
43414;DHT22;29013;49.676;8.606;2023-08-07T09:06:41;16.0;99.9
43414;DHT22;29013;49.676;8.606;2023-08-07T09:12:00;16.1;99.9
43414;DHT22;29013;49.676;8.606;2023-08-07T09:17:18;16.1;99.9
43414;DHT22;29013;49.676;8.606;2023-08-07T09:22:41;16.1;99.9
43414;DHT22;29013;49.676;8.606;2023-08-07T09:28:06;16.1;99.9
43414;DHT22;29013;49.676;8.606;2023-08-07T09:33:28;16.2;99.9
43414;DHT22;29013;49.676;8.606;2023-08-07T09:38:50;16.3;99.9
43414;DHT22;29013;49.676;8.606;2023-08-07T09:44:13;16.4;99.9
43414;DHT22;29013;49.676;8.606;2023-08-07T09:49:36;16.5;99.9
43414;DHT22;29013;49.676;8.606;2023-08-07T09:55:03;16.5;99.9
43414;DHT22;29013;49.676;8.606;2023-08-07T10:00:27;16.5;99.9
43414;DHT22;29013;49.676;8.606;2023-08-07T10:06:10;16.5;99.9
43414;DHT22;29013;49.676;8.606;2023-08-07T10:11:54;16.6;99.9
43414;DHT22;29013;49.676;8.606;2023-08-07T10:17:17;16.6;99.9
43414;DHT22;29013;49.676;8.606;2023-08-07T10:22:40;16.4;99.9
43414;DHT22;29013;49.676;8.606;2023-08-07T10:28:05;16.2;99.9
43414;DHT22;29013;49.676;8.606;2023-08-07T10:33:49;16.0;99.9
43414;DHT22;29013;49.676;8.606;2023-08-07T10:39:13;16.0;99.9
43414;DHT22;29013;49.676;8.606;2023-08-07T10:44:44;15.9;99.9
43414;DHT22;29013;49.676;8.606;2023-08-07T10:50:01;15.9;99.9
43414;DHT22;29013;49.676;8.606;2023-08-07T10:55:25;15.9;99.9
43414;DHT22;29013;49.676;8.606;2023-08-07T11:00:49;16.1;99.9
43414;DHT22;29013;49.676;8.606;2023-08-07T11:06:13;16.2;99.9
43414;DHT22;29013;49.676;8.606;2023-08-07T11:11:39;16.4;99.9
43414;DHT22;29013;49.676;8.606;2023-08-07T11:17:03;16.5;99.9
43414;DHT22;29013;49.676;8.606;2023-08-07T11:22:28;16.5;99.9
43414;DHT22;29013;49.676;8.606;2023-08-07T11:27:52;16.5;99.9
43414;DHT22;29013;49.676;8.606;2023-08-07T11:33:15;16.6;99.9
43414;DHT22;29013;49.676;8.606;2023-08-07T11:38:38;16.8;99.9
43414;DHT22;29013;49.676;8.606;2023-08-07T11:44:01;17.0;99.9
43414;DHT22;29013;49.676;8.606;2023-08-07T11:49:25;17.2;99.9
43414;DHT22;29013;49.676;8.606;2023-08-07T11:54:51;17.3;99.9
43414;DHT22;29013;49.676;8.606;2023-08-07T12:00:31;17.3;99.9
43414;DHT22;29013;49.676;8.606;2023-08-07T12:05:52;17.4;99.9
43414;DHT22;29013;49.676;8.606;2023-08-07T12:11:41;17.4;99.9
43414;DHT22;29013;49.676;8.606;2023-08-07T12:17:15;17.5;99.9
43414;DHT22;29013;49.676;8.606;2023-08-07T12:22:38;17.5;99.9
43414;DHT22;29013;49.676;8.606;2023-08-07T12:28:03;17.3;99.9
43414;DHT22;29013;49.676;8.606;2023-08-07T12:33:28;17.2;99.9
43414;DHT22;29013;49.676;8.606;2023-08-07T12:38:55;17.2;99.9
43414;DHT22;29013;49.676;8.606;2023-08-07T12:44:12;17.3;99.9
43414;DHT22;29013;49.676;8.606;2023-08-07T12:49:32;17.3;99.9
43414;DHT22;29013;49.676;8.606;2023-08-07T12:54:53;17.3;99.9
43414;DHT22;29013;49.676;8.606;2023-08-07T13:00:19;17.6;99.9
43414;DHT22;29013;49.676;8.606;2023-08-07T13:05:43;17.9;99.9
43414;DHT22;29013;49.676;8.606;2023-08-07T13:11:07;18.1;99.9
43414;DHT22;29013;49.676;8.606;2023-08-07T13:16:33;18.3;99.9
43414;DHT22;29013;49.676;8.606;2023-08-07T13:22:28;18.1;99.9
43414;DHT22;29013;49.676;8.606;2023-08-07T13:27:45;18.4;99.9
43414;DHT22;29013;49.676;8.606;2023-08-07T13:33:36;18.7;99.9
43414;DHT22;29013;49.676;8.606;2023-08-07T13:39:00;19.3;99.9
43414;DHT22;29013;49.676;8.606;2023-08-07T13:44:25;19.5;99.9
43414;DHT22;29013;49.676;8.606;2023-08-07T13:49:49;19.8;99.9
43414;DHT22;29013;49.676;8.606;2023-08-07T13:55:11;20.3;99.9
43414;DHT22;29013;49.676;8.606;2023-08-07T14:00:36;20.5;99.9
43414;DHT22;29013;49.676;8.606;2023-08-07T14:06:01;20.5;99.9
43414;DHT22;29013;49.676;8.606;2023-08-07T14:11:24;20.5;99.9
43414;DHT22;29013;49.676;8.606;2023-08-07T14:16:48;20.6;99.9
43414;DHT22;29013;49.676;8.606;2023-08-07T14:22:09;20.4;99.9
43414;DHT22;29013;49.676;8.606;2023-08-07T14:27:34;20.2;99.9
43414;DHT22;29013;49.676;8.606;2023-08-07T14:32:59;20.4;99.9
43414;DHT22;29013;49.676;8.606;2023-08-07T14:38:24;20.8;99.9
43414;DHT22;29013;49.676;8.606;2023-08-07T14:44:09;21.1;99.9
43414;DHT22;29013;49.676;8.606;2023-08-07T14:49:32;21.4;99.9
43414;DHT22;29013;49.676;8.606;2023-08-07T14:55:53;21.5;99.9
43414;DHT22;29013;49.676;8.606;2023-08-07T15:02:04;22.1;99.9
43414;DHT22;29013;49.676;8.606;2023-08-07T15:07:25;22.7;96.4
43414;DHT22;29013;49.676;8.606;2023-08-07T15:12:49;22.5;95.5
43414;DHT22;29013;49.676;8.606;2023-08-07T15:18:11;22.1;93.8
43414;DHT22;29013;49.676;8.606;2023-08-07T15:23:58;21.7;94.6
43414;DHT22;29013;49.676;8.606;2023-08-07T15:29:22;21.6;92.3
43414;DHT22;29013;49.676;8.606;2023-08-07T15:34:47;22.0;91.6
43414;DHT22;29013;49.676;8.606;2023-08-07T15:40:12;22.3;89.8
43414;DHT22;29013;49.676;8.606;2023-08-07T15:45:31;22.7;89.4
43414;DHT22;29013;49.676;8.606;2023-08-07T15:50:56;22.6;88.2
43414;DHT22;29013;49.676;8.606;2023-08-07T15:56:21;22.4;89.5
43414;DHT22;29013;49.676;8.606;2023-08-07T16:01:46;22.4;83.7
43414;DHT22;29013;49.676;8.606;2023-08-07T16:07:11;22.6;85.5
43414;DHT22;29013;49.676;8.606;2023-08-07T16:12:29;22.4;84.0
43414;DHT22;29013;49.676;8.606;2023-08-07T16:17:48;22.2;81.9
43414;DHT22;29013;49.676;8.606;2023-08-07T16:23:30;21.8;82.1
43414;DHT22;29013;49.676;8.606;2023-08-07T16:29:11;21.7;83.1
43414;DHT22;29013;49.676;8.606;2023-08-07T16:34:31;21.6;81.6
43414;DHT22;29013;49.676;8.606;2023-08-07T16:39:54;21.7;83.6
43414;DHT22;29013;49.676;8.606;2023-08-07T16:45:18;22.1;82.1
43414;DHT22;29013;49.676;8.606;2023-08-07T16:50:44;22.5;80.9
43414;DHT22;29013;49.676;8.606;2023-08-07T16:56:08;22.8;78.7
43414;DHT22;29013;49.676;8.606;2023-08-07T17:01:30;22.6;74.8
43414;DHT22;29013;49.676;8.606;2023-08-07T17:06:54;22.2;75.4
43414;DHT22;29013;49.676;8.606;2023-08-07T17:12:17;22.0;77.3
43414;DHT22;29013;49.676;8.606;2023-08-07T17:17:40;21.9;75.6
43414;DHT22;29013;49.676;8.606;2023-08-07T17:23:04;22.0;75.3
43414;DHT22;29013;49.676;8.606;2023-08-07T17:28:27;22.1;74.6
43414;DHT22;29013;49.676;8.606;2023-08-07T17:34:11;22.0;76.5
43414;DHT22;29013;49.676;8.606;2023-08-07T17:39:30;21.9;77.2
43414;DHT22;29013;49.676;8.606;2023-08-07T17:58:30;23.7;71.9
43414;DHT22;29013;49.676;8.606;2023-08-07T18:03:47;22.5;72.6
43414;DHT22;29013;49.676;8.606;2023-08-07T18:09:10;21.5;76.7
43414;DHT22;29013;49.676;8.606;2023-08-07T18:14:32;21.0;81.2
43414;DHT22;29013;49.676;8.606;2023-08-07T18:19:54;20.6;80.9
43414;DHT22;29013;49.676;8.606;2023-08-07T18:25:17;20.4;82.2
43414;DHT22;29013;49.676;8.606;2023-08-07T18:30:55;20.2;84.0
43414;DHT22;29013;49.676;8.606;2023-08-07T18:36:19;20.1;84.6
43414;DHT22;29013;49.676;8.606;2023-08-07T18:41:38;19.8;85.2
43414;DHT22;29013;49.676;8.606;2023-08-07T18:46:59;19.6;87.2
43414;DHT22;29013;49.676;8.606;2023-08-07T18:52:21;19.4;87.6
43414;DHT22;29013;49.676;8.606;2023-08-07T18:57:44;19.2;87.3
43414;DHT22;29013;49.676;8.606;2023-08-07T19:03:07;19.1;87.6
43414;DHT22;29013;49.676;8.606;2023-08-07T19:08:32;19.1;87.2
43414;DHT22;29013;49.676;8.606;2023-08-07T19:13:57;19.0;88.2
43414;DHT22;29013;49.676;8.606;2023-08-07T19:19:45;18.8;89.8
43414;DHT22;29013;49.676;8.606;2023-08-07T19:25:08;18.9;89.9
43414;DHT22;29013;49.676;8.606;2023-08-07T19:30:33;18.8;90.8
43414;DHT22;29013;49.676;8.606;2023-08-07T19:35:54;18.7;91.5
43414;DHT22;29013;49.676;8.606;2023-08-07T19:41:18;18.6;92.5
43414;DHT22;29013;49.676;8.606;2023-08-07T19:46:57;18.4;93.4
43414;DHT22;29013;49.676;8.606;2023-08-07T19:52:17;18.4;93.5
43414;DHT22;29013;49.676;8.606;2023-08-07T19:57:41;18.0;94.2
43414;DHT22;29013;49.676;8.606;2023-08-07T20:03:07;17.8;94.8
43414;DHT22;29013;49.676;8.606;2023-08-07T20:08:29;17.6;95.6
43414;DHT22;29013;49.676;8.606;2023-08-07T20:13:53;17.5;96.1
43414;DHT22;29013;49.676;8.606;2023-08-07T20:19:16;17.3;96.6
43414;DHT22;29013;49.676;8.606;2023-08-07T20:24:40;17.2;97.1
43414;DHT22;29013;49.676;8.606;2023-08-07T20:30:01;17.1;97.3
43414;DHT22;29013;49.676;8.606;2023-08-07T20:35:21;17.0;97.8
43414;DHT22;29013;49.676;8.606;2023-08-07T20:40:43;16.9;98.3
43414;DHT22;29013;49.676;8.606;2023-08-07T20:46:03;16.7;98.8
43414;DHT22;29013;49.676;8.606;2023-08-07T20:51:25;16.6;99.4
43414;DHT22;29013;49.676;8.606;2023-08-07T20:56:45;16.5;99.8
43414;DHT22;29013;49.676;8.606;2023-08-07T21:02:09;16.3;99.9
43414;DHT22;29013;49.676;8.606;2023-08-07T21:07:47;16.2;99.9
43414;DHT22;29013;49.676;8.606;2023-08-07T21:13:10;16.2;99.9
43414;DHT22;29013;49.676;8.606;2023-08-07T21:18:34;16.1;99.9
43414;DHT22;29013;49.676;8.606;2023-08-07T21:23:57;16.0;99.9
43414;DHT22;29013;49.676;8.606;2023-08-07T21:29:19;16.0;99.9
43414;DHT22;29013;49.676;8.606;2023-08-07T21:34:50;15.9;99.9
43414;DHT22;29013;49.676;8.606;2023-08-07T21:40:10;15.9;99.9
43414;DHT22;29013;49.676;8.606;2023-08-07T21:45:33;15.8;99.9
43414;DHT22;29013;49.676;8.606;2023-08-07T21:50:55;15.7;99.9
43414;DHT22;29013;49.676;8.606;2023-08-07T21:56:20;15.6;99.9
43414;DHT22;29013;49.676;8.606;2023-08-07T22:01:44;15.6;99.9
43414;DHT22;29013;49.676;8.606;2023-08-07T22:07:08;15.5;99.9
43414;DHT22;29013;49.676;8.606;2023-08-07T22:12:32;15.5;99.9
43414;DHT22;29013;49.676;8.606;2023-08-07T22:17:56;15.5;99.9
43414;DHT22;29013;49.676;8.606;2023-08-07T22:23:43;15.4;99.9
43414;DHT22;29013;49.676;8.606;2023-08-07T22:29:05;15.5;99.9
43414;DHT22;29013;49.676;8.606;2023-08-07T22:34:26;15.4;99.9
43414;DHT22;29013;49.676;8.606;2023-08-07T22:39:48;15.3;99.9
43414;DHT22;29013;49.676;8.606;2023-08-07T22:45:12;15.2;99.9
43414;DHT22;29013;49.676;8.606;2023-08-07T22:50:38;15.1;99.9
43414;DHT22;29013;49.676;8.606;2023-08-07T22:56:01;15.1;99.9
43414;DHT22;29013;49.676;8.606;2023-08-07T23:01:26;15.1;99.9
43414;DHT22;29013;49.676;8.606;2023-08-07T23:06:49;15.1;99.9
43414;DHT22;29013;49.676;8.606;2023-08-07T23:12:35;15.0;99.9
43414;DHT22;29013;49.676;8.606;2023-08-07T23:18:02;15.2;99.9
43414;DHT22;29013;49.676;8.606;2023-08-07T23:23:20;15.2;99.9
43414;DHT22;29013;49.676;8.606;2023-08-07T23:29:09;15.2;99.9
43414;DHT22;29013;49.676;8.606;2023-08-07T23:34:31;15.5;99.9
43414;DHT22;29013;49.676;8.606;2023-08-07T23:39:56;15.5;99.9
43414;DHT22;29013;49.676;8.606;2023-08-07T23:45:20;15.5;99.9
43414;DHT22;29013;49.676;8.606;2023-08-07T23:51:07;15.5;99.9
43414;DHT22;29013;49.676;8.606;2023-08-07T23:56:30;15.6;99.9
